Time;durP1;ratioP1;P1;durP2;ratioP2;P2;SDS_P1;SDS_P2;PMS_P1;PMS_P2;Temp;Humidity;BMP_temperature;BMP_pressure;BME280_temperature;BME280_humidity;BME280_pressure;Samples;Min_cycle;Max_cycle;Signal;HPM_P1;HPM_P2
2022/06/09 00:00:48;;;;;;;1.50;1.40;;;;;;;17.61;79.68;99866.00;5033463;28;20853;-74
2022/06/09 00:03:19;;;;;;;2.28;1.73;;;;;;;17.50;80.40;99867.28;5033579;28;20434;-74
2022/06/09 00:05:45;;;;;;;1.23;1.17;;;;;;;17.43;80.32;99864.97;5033153;28;20422;-74
2022/06/09 00:08:11;;;;;;;1.38;1.27;;;;;;;17.34;80.73;99880.47;5033338;28;20958;-74
2022/06/09 00:10:41;;;;;;;1.40;1.30;;;;;;;17.43;80.58;99880.56;5033119;28;20478;-74
2022/06/09 00:13:07;;;;;;;1.25;0.80;;;;;;;17.40;80.33;99886.66;5032904;28;20419;-74
2022/06/09 00:15:32;;;;;;;1.20;0.60;;;;;;;17.42;79.70;99885.25;5033160;28;20841;-74
2022/06/09 00:17:57;;;;;;;1.60;0.67;;;;;;;17.43;79.69;99892.34;5033178;28;20413;-74
2022/06/09 00:20:23;;;;;;;0.60;0.60;;;;;;;17.53;78.52;99889.41;5032963;28;20912;-74
2022/06/09 00:22:49;;;;;;;1.30;0.60;;;;;;;17.57;78.23;99895.13;5033002;28;20391;-74
2022/06/09 00:25:14;;;;;;;2.00;0.40;;;;;;;17.50;78.39;99891.94;5032633;28;20394;-74
2022/06/09 00:27:40;;;;;;;3.07;0.40;;;;;;;17.44;78.28;99893.97;5015150;28;20414;-74
2022/06/09 00:30:07;;;;;;;0.50;0.50;;;;;;;17.36;78.56;99905.63;5032977;28;20391;-74
2022/06/09 00:32:34;;;;;;;2.20;0.52;;;;;;;17.45;78.10;99903.81;5032812;28;20493;-74
2022/06/09 00:34:59;;;;;;;0.70;0.60;;;;;;;17.52;77.36;99908.88;5032756;28;20402;-75
2022/06/09 00:37:24;;;;;;;1.93;0.50;;;;;;;17.48;77.25;99902.41;5032721;28;20399;-74
2022/06/09 00:39:49;;;;;;;3.40;0.50;;;;;;;17.43;77.49;99910.72;5032689;28;20846;-74
2022/06/09 00:42:16;;;;;;;0.40;0.40;;;;;;;17.41;77.60;99915.69;5032512;28;20411;-74
2022/06/09 00:44:43;;;;;;;1.20;0.50;;;;;;;17.42;77.26;99909.09;5032515;28;20395;-74
2022/06/09 00:47:18;;;;;;;0.70;0.60;;;;;;;17.43;77.29;99910.72;5032670;28;20494;-74
2022/06/09 00:49:55;;;;;;;2.40;0.50;;;;;;;17.41;77.35;99913.75;5032462;28;20399;-74
2022/06/09 00:52:23;;;;;;;3.72;0.40;;;;;;;17.38;77.85;99913.56;5032561;28;20457;-74
2022/06/09 00:54:52;;;;;;;1.05;0.60;;;;;;;17.40;77.85;99908.56;5032352;28;20391;-74
2022/06/09 00:57:26;;;;;;;2.40;0.40;;;;;;;17.39;77.53;99913.25;5032382;28;20391;-74
2022/06/09 00:59:58;;;;;;;0.75;0.40;;;;;;;17.34;77.75;99907.06;5032288;28;20391;-74
2022/06/09 01:02:24;;;;;;;3.40;0.45;;;;;;;17.33;77.97;99911.72;5032328;28;20387;-74
2022/06/09 01:04:52;;;;;;;0.70;0.60;;;;;;;17.17;78.69;99924.06;5032028;28;20594;-74
2022/06/09 01:07:22;;;;;;;1.40;0.50;;;;;;;17.09;78.83;99922.81;5032323;28;20387;-74
2022/06/09 01:09:48;;;;;;;0.50;0.50;;;;;;;17.06;79.02;99923.44;5032206;28;20383;-74
2022/06/09 01:12:28;;;;;;;0.73;0.60;;;;;;;17.03;79.00;99924.03;5031803;28;20411;-74
2022/06/09 01:14:59;;;;;;;1.50;0.77;;;;;;;16.99;79.22;99916.72;5032020;28;20395;-74
2022/06/09 01:17:56;;;;;;;3.20;0.90;;;;;;;17.13;78.48;99923.03;5032049;28;20800;-74
2022/06/09 01:20:39;;;;;;;1.70;0.70;;;;;;;17.18;78.00;99920.22;5031963;28;20803;-74
2022/06/09 01:23:07;;;;;;;2.00;0.60;;;;;;;17.20;78.37;99917.16;5014405;28;20759;-74
2022/06/09 01:25:41;;;;;;;0.98;0.98;;;;;;;17.27;77.85;99918.41;5014366;28;20924;-74
2022/06/09 01:28:16;;;;;;;2.10;0.90;;;;;;;17.30;77.84;99919.72;5031883;28;20843;-74
2022/06/09 01:30:51;;;;;;;1.73;0.52;;;;;;;17.33;77.21;99924.59;5031840;28;20395;-74
2022/06/09 01:33:40;;;;;;;1.30;0.68;;;;;;;17.28;77.81;99928.25;5014071;28;20422;-74
2022/06/09 01:36:23;;;;;;;2.58;0.88;;;;;;;17.29;77.08;99923.59;5014121;28;20391;-74
2022/06/09 01:38:52;;;;;;;2.03;0.50;;;;;;;17.24;77.46;99921.75;5031172;28;20481;-74
2022/06/09 01:41:17;;;;;;;1.25;0.60;;;;;;;17.24;77.31;99920.94;5031397;28;20474;-74
2022/06/09 01:43:44;;;;;;;1.17;0.82;;;;;;;17.22;77.34;99934.13;5031701;28;20435;-74
2022/06/09 01:46:19;;;;;;;1.70;0.77;;;;;;;17.18;77.76;99944.03;5031580;28;20968;-74
2022/06/09 01:48:44;;;;;;;0.68;0.50;;;;;;;17.12;78.07;99946.06;5031628;28;20422;-74
2022/06/09 01:51:13;;;;;;;1.40;0.70;;;;;;;17.12;78.11;99946.06;5031563;28;20430;-74
2022/06/09 01:54:17;;;;;;;2.03;0.60;;;;;;;17.08;77.98;99951.34;5031591;28;20410;-74
2022/06/09 01:56:49;;;;;;;1.10;0.77;;;;;;;16.99;78.23;99953.09;5031499;28;20383;-74
2022/06/09 01:59:30;;;;;;;1.50;0.65;;;;;;;16.96;77.75;99956.44;5031692;28;20556;-74
2022/06/09 02:02:00;;;;;;;2.30;0.70;;;;;;;16.78;78.59;99949.09;5031488;28;20391;-74
2022/06/09 02:04:32;;;;;;;1.63;0.60;;;;;;;16.75;78.70;99946.13;5031209;28;20414;-74
2022/06/09 02:06:57;;;;;;;3.13;0.65;;;;;;;16.66;78.84;99940.53;5031502;28;20446;-74
2022/06/09 02:09:27;;;;;;;0.82;0.70;;;;;;;16.70;78.81;99940.72;5031600;28;20411;-74
2022/06/09 02:11:55;;;;;;;1.00;0.68;;;;;;;16.85;77.97;99941.31;5030999;28;20430;-74
2022/06/09 02:14:26;;;;;;;3.75;1.00;;;;;;;16.84;78.37;99944.34;5031188;28;20948;-74
2022/06/09 02:16:51;;;;;;;2.22;0.60;;;;;;;16.76;78.60;99934.09;5030294;28;20395;-74
2022/06/09 02:19:16;;;;;;;2.47;0.73;;;;;;;16.63;78.81;99940.31;5031355;28;20402;-74
2022/06/09 02:21:41;;;;;;;2.28;1.08;;;;;;;16.49;79.12;99941.03;5031335;28;20390;-74
2022/06/09 02:24:07;;;;;;;1.17;0.60;;;;;;;16.46;79.24;99938.06;5031315;28;20399;-74
2022/06/09 02:26:32;;;;;;;1.87;0.60;;;;;;;16.47;79.22;99936.94;5031611;28;20391;-74
2022/06/09 02:28:58;;;;;;;2.50;0.70;;;;;;;16.48;78.97;99944.06;5031148;28;20421;-74
2022/06/09 02:31:24;;;;;;;1.58;0.52;;;;;;;16.53;78.79;99958.44;5031143;28;20391;-74
2022/06/09 02:33:51;;;;;;;4.50;1.30;;;;;;;16.49;78.73;99956.63;5031065;28;20924;-74
2022/06/09 02:36:17;;;;;;;3.67;1.20;;;;;;;16.47;80.27;99951.44;5031052;28;20383;-74
2022/06/09 02:38:42;;;;;;;4.60;0.95;;;;;;;16.54;80.46;99959.28;5031091;28;20402;-74
2022/06/09 02:41:08;;;;;;;1.40;0.90;;;;;;;16.63;80.14;99963.00;5030828;28;20406;-74
2022/06/09 02:43:33;;;;;;;3.03;0.97;;;;;;;16.67;79.79;99953.09;5030985;28;20882;-74
2022/06/09 02:45:59;;;;;;;2.10;1.00;;;;;;;16.67;79.84;99958.56;5013258;28;20395;-74
2022/06/09 02:48:25;;;;;;;2.53;1.10;;;;;;;16.67;79.83;99955.81;5031424;28;20399;-74
2022/06/09 02:50:52;;;;;;;0.83;0.80;;;;;;;16.65;80.10;99960.78;5016840;28;20432;-74
2022/06/09 02:53:18;;;;;;;1.80;0.80;;;;;;;16.57;79.83;99962.25;5034244;28;20521;-74
2022/06/09 02:55:45;;;;;;;2.03;0.82;;;;;;;16.66;79.26;99970.63;5034571;28;20437;-75
2022/06/09 02:58:10;;;;;;;1.13;0.90;;;;;;;16.76;78.30;99967.72;5034633;28;20477;-75
2022/06/09 03:00:36;;;;;;;0.80;0.80;;;;;;;16.76;78.39;99973.19;5034500;28;20486;-74
2022/06/09 03:03:05;;;;;;;1.60;0.75;;;;;;;16.69;79.03;99980.97;5034625;28;20391;-74
2022/06/09 03:05:33;;;;;;;3.00;0.80;;;;;;;16.66;79.24;99984.31;5034238;28;21015;-74
2022/06/09 03:07:58;;;;;;;1.73;1.00;;;;;;;16.60;79.25;99977.25;5016768;28;20777;-74
2022/06/09 03:10:23;;;;;;;2.60;0.80;;;;;;;16.59;79.13;99981.13;5034123;28;20403;-74
2022/06/09 03:12:49;;;;;;;2.47;0.87;;;;;;;16.46;79.88;99984.56;5034419;28;20762;-74
2022/06/09 03:15:17;;;;;;;1.67;0.90;;;;;;;16.48;79.68;99980.41;5034218;28;20394;-74
2022/06/09 03:17:43;;;;;;;2.92;0.85;;;;;;;16.53;79.57;99990.50;5034640;28;20391;-74
2022/06/09 03:20:13;;;;;;;1.33;0.80;;;;;;;16.57;78.98;99994.28;5034134;28;20403;-74
2022/06/09 03:22:38;;;;;;;2.75;0.90;;;;;;;16.57;79.03;99991.53;5034242;28;20414;-74
2022/06/09 03:25:04;;;;;;;2.53;1.07;;;;;;;16.59;78.90;100001.09;5034201;28;20383;-74
2022/06/09 03:27:29;;;;;;;1.80;0.93;;;;;;;16.61;78.52;100000.78;5034060;28;20406;-74
2022/06/09 03:29:55;;;;;;;1.00;1.00;;;;;;;16.61;78.15;100009.00;5034023;28;20379;-74
2022/06/09 03:32:22;;;;;;;2.63;0.93;;;;;;;16.53;78.93;100007.69;5034007;28;20383;-74
2022/06/09 03:34:47;;;;;;;4.43;0.70;;;;;;;16.52;78.37;100008.81;5033866;28;20395;-74
2022/06/09 03:37:12;;;;;;;2.50;1.00;;;;;;;16.56;78.04;100012.59;5033857;28;20478;-74
2022/06/09 03:39:38;;;;;;;3.87;0.90;;;;;;;16.56;77.81;100015.34;5033557;28;20429;-74
2022/06/09 03:42:04;;;;;;;2.30;0.95;;;;;;;16.60;77.52;100015.56;5033833;28;20755;-74
2022/06/09 03:44:30;;;;;;;2.90;1.00;;;;;;;16.63;76.76;100020.44;5033752;28;20395;-74
2022/06/09 03:46:55;;;;;;;2.47;1.13;;;;;;;16.57;77.05;100019.72;5033695;28;20727;-74
2022/06/09 03:49:21;;;;;;;1.00;0.87;;;;;;;16.56;77.06;100029.00;5033645;28;20399;-74
2022/06/09 03:51:46;;;;;;;2.80;0.75;;;;;;;16.51;77.08;100028.25;5033657;28;20440;-74
2022/06/09 03:54:13;;;;;;;3.90;1.30;;;;;;;16.51;77.14;100025.50;5033735;28;20411;-74
2022/06/09 03:56:39;;;;;;;2.43;1.70;;;;;;;16.48;77.28;100031.56;5033890;28;20402;-74
2022/06/09 03:59:05;;;;;;;2.63;1.17;;;;;;;16.47;76.93;100035.41;5033425;28;20395;-74
2022/06/09 04:01:30;;;;;;;2.83;1.63;;;;;;;16.45;77.31;100032.16;5032815;28;20781;-74
2022/06/09 04:03:55;;;;;;;4.10;1.73;;;;;;;16.42;77.78;100043.69;5033332;28;20382;-74
2022/06/09 04:06:24;;;;;;;2.00;1.30;;;;;;;16.43;76.84;100042.59;5033164;28;20778;-74
2022/06/09 04:08:50;;;;;;;2.38;0.82;;;;;;;16.43;76.76;100037.13;5017770;28;20390;-74
2022/06/09 04:11:16;;;;;;;2.83;1.13;;;;;;;16.39;76.95;100039.63;5032976;28;20411;-74
2022/06/09 04:13:41;;;;;;;3.22;1.23;;;;;;;16.26;77.55;100036.78;5033166;28;20415;-74
2022/06/09 04:16:25;;;;;;;5.07;1.43;;;;;;;16.18;77.92;100048.34;5033171;28;20399;-74
2022/06/09 04:18:55;;;;;;;2.45;0.95;;;;;;;16.05;78.30;100044.41;5019013;28;20402;-74
2022/06/09 04:21:21;;;;;;;4.68;1.67;;;;;;;15.98;78.41;100049.41;5033022;28;20743;-74
2022/06/09 04:23:47;;;;;;;3.22;1.10;;;;;;;15.86;78.84;100052.56;5033269;28;20401;-74
2022/06/09 04:26:15;;;;;;;4.65;1.10;;;;;;;15.86;78.71;100060.75;5032841;28;20410;-74
2022/06/09 04:28:41;;;;;;;5.30;1.30;;;;;;;15.85;78.80;100058.28;5032887;28;20426;-74
2022/06/09 04:31:06;;;;;;;4.05;1.20;;;;;;;15.91;78.15;100049.75;5032790;28;20910;-74
2022/06/09 04:33:31;;;;;;;2.10;1.10;;;;;;;15.98;78.03;100052.97;5032743;28;20418;-74
2022/06/09 04:35:57;;;;;;;2.43;1.10;;;;;;;15.87;78.11;100056.91;5032817;28;20449;-74
2022/06/09 04:38:22;;;;;;;5.33;1.30;;;;;;;15.80;79.04;100052.91;5032721;28;20391;-74
2022/06/09 04:40:47;;;;;;;6.27;1.23;;;;;;;15.82;78.81;100056.97;5032215;28;20411;-74
2022/06/09 04:43:13;;;;;;;2.17;1.10;;;;;;;15.74;79.22;100062.25;5032643;28;20399;-74
2022/06/09 04:45:39;;;;;;;3.33;1.38;;;;;;;15.79;78.99;100068.47;5032526;28;20921;-74
2022/06/09 04:48:05;;;;;;;3.45;1.00;;;;;;;15.85;78.82;100061.03;5032635;28;20376;-74
2022/06/09 04:50:31;;;;;;;6.30;1.10;;;;;;;15.93;77.73;100072.16;5032437;28;20387;-74
2022/06/09 04:52:57;;;;;;;2.97;1.10;;;;;;;15.92;78.08;100070.53;5032415;28;20414;-74
2022/06/09 04:55:23;;;;;;;5.13;1.20;;;;;;;15.96;77.90;100070.75;5032328;28;20757;-74
2022/06/09 04:57:48;;;;;;;3.42;1.23;;;;;;;15.84;78.37;100078.53;5032346;28;20414;-74
2022/06/09 05:00:15;;;;;;;6.30;1.50;;;;;;;15.80;78.56;100081.03;5032643;28;20456;-74
2022/06/09 05:02:41;;;;;;;6.93;1.75;;;;;;;15.91;77.69;100082.53;5032272;28;20393;-74
2022/06/09 05:05:07;;;;;;;1.80;0.95;;;;;;;15.86;77.99;100092.72;5032031;28;20403;-74
2022/06/09 05:07:33;;;;;;;4.45;0.88;;;;;;;15.90;77.86;100099.25;5032269;28;20403;-74
2022/06/09 05:09:58;;;;;;;5.75;1.30;;;;;;;15.81;78.09;100109.16;5031782;28;20422;-74
2022/06/09 05:12:24;;;;;;;3.00;1.13;;;;;;;15.91;77.59;100101.66;5031170;28;20514;-74
2022/06/09 05:14:51;;;;;;;4.40;1.65;;;;;;;15.93;77.39;100104.94;5031986;28;20402;-74
2022/06/09 05:17:18;;;;;;;4.23;1.07;;;;;;;15.95;77.39;100100.00;5031954;28;20395;-74
2022/06/09 05:19:43;;;;;;;3.60;1.30;;;;;;;15.91;77.49;100114.50;5031886;28;20433;-74
2022/06/09 05:22:08;;;;;;;2.77;0.97;;;;;;;15.97;77.54;100110.66;5032136;28;20765;-74
2022/06/09 05:24:34;;;;;;;4.60;0.90;;;;;;;15.97;77.52;100110.66;5031894;28;20395;-74
2022/06/09 05:26:59;;;;;;;2.60;0.97;;;;;;;15.98;77.46;100115.81;5014359;28;20395;-74
2022/06/09 05:29:24;;;;;;;1.50;1.10;;;;;;;15.98;77.35;100110.34;5031747;28;20391;-74
2022/06/09 05:31:50;;;;;;;4.70;1.43;;;;;;;15.89;77.51;100116.72;5031839;28;20490;-74
2022/06/09 05:34:15;;;;;;;1.85;1.00;;;;;;;15.94;77.41;100124.88;5031801;28;20419;-74
2022/06/09 05:36:40;;;;;;;6.00;1.10;;;;;;;16.02;76.38;100122.34;5031785;28;20427;-74
2022/06/09 05:44:51;;;;;;;6.53;1.40;;;;;;;16.11;75.69;100130.72;5031614;28;20406;-74
2022/06/09 05:47:21;;;;;;;5.90;1.67;;;;;;;16.05;75.73;100127.22;5017295;28;20474;-74
2022/06/09 05:49:48;;;;;;;5.82;1.70;;;;;;;16.13;75.74;100134.00;5031488;28;20732;-74
2022/06/09 05:52:19;;;;;;;3.60;1.25;;;;;;;16.08;75.69;100140.31;5031566;28;20398;-74
2022/06/09 05:54:45;;;;;;;5.78;1.15;;;;;;;16.13;75.13;100133.19;5031469;28;20486;-74
2022/06/09 05:57:11;;;;;;;4.57;1.50;;;;;;;16.17;74.55;100139.69;5031457;28;20474;-74
2022/06/09 05:59:37;;;;;;;4.63;1.00;;;;;;;16.21;73.66;100141.53;5031500;28;20409;-74
2022/06/09 06:02:04;;;;;;;6.15;1.35;;;;;;;16.13;73.79;100147.66;5013738;28;20399;-74
2022/06/09 06:04:29;;;;;;;3.72;1.20;;;;;;;16.13;73.37;100150.41;5031267;28;20477;-74
2022/06/09 06:06:55;;;;;;;3.40;0.93;;;;;;;16.19;73.05;100145.69;5031419;28;20399;-74
2022/06/09 06:09:21;;;;;;;6.80;1.25;;;;;;;16.24;72.87;100164.75;5031263;28;20399;-74
2022/06/09 06:11:47;;;;;;;6.22;1.42;;;;;;;16.27;72.47;100170.47;5031368;28;20894;-74
2022/06/09 06:14:13;;;;;;;4.40;1.83;;;;;;;16.19;73.02;100162.91;5031182;28;20414;-74
2022/06/09 06:16:39;;;;;;;4.20;1.13;;;;;;;16.20;73.02;100175.44;5031401;28;20394;-74
2022/06/09 06:19:07;;;;;;;4.45;1.20;;;;;;;16.29;72.16;100172.91;5031402;28;20719;-74
2022/06/09 06:21:34;;;;;;;5.25;1.55;;;;;;;16.33;72.07;100165.78;5031350;28;20406;-74
2022/06/09 06:23:59;;;;;;;3.45;0.95;;;;;;;16.42;71.72;100172.22;5032974;28;20422;-74
2022/06/09 06:26:24;;;;;;;3.60;2.10;;;;;;;16.46;71.89;100181.50;5035533;28;20386;-74
2022/06/09 06:28:50;;;;;;;6.57;1.67;;;;;;;16.54;70.83;100178.09;5035314;28;20866;-74
2022/06/09 06:31:16;;;;;;;6.63;1.17;;;;;;;16.46;71.56;100182.31;5033819;28;20470;-74
2022/06/09 06:33:41;;;;;;;3.13;1.35;;;;;;;16.44;71.20;100184.50;5034926;28;20513;-74
2022/06/09 06:36:07;;;;;;;4.43;1.20;;;;;;;16.47;71.04;100183.94;5034915;28;20406;-74
2022/06/09 06:38:32;;;;;;;6.35;1.10;;;;;;;16.44;71.16;100191.91;5017142;28;20486;-74
2022/06/09 06:40:58;;;;;;;4.10;1.33;;;;;;;16.49;70.76;100197.31;5035149;28;20399;-74
2022/06/09 06:43:23;;;;;;;4.97;1.00;;;;;;;16.47;70.75;100203.06;5034910;28;20869;-74
2022/06/09 06:45:48;;;;;;;4.10;1.00;;;;;;;16.49;71.05;100194.59;5034761;28;20399;-74
2022/06/09 06:48:14;;;;;;;4.63;1.20;;;;;;;16.51;71.31;100201.41;5034980;28;20862;-74
2022/06/09 06:50:40;;;;;;;6.30;1.97;;;;;;;16.59;70.96;100203.53;5033570;28;20410;-74
2022/06/09 06:53:05;;;;;;;5.90;1.23;;;;;;;16.57;70.80;100203.00;5034627;28;20419;-74
2022/06/09 06:55:31;;;;;;;6.50;1.40;;;;;;;16.56;71.26;100203.31;5034586;28;20403;-74
2022/06/09 06:57:56;;;;;;;5.97;1.10;;;;;;;16.67;70.75;100202.06;5016899;28;20403;-74
2022/06/09 07:00:23;;;;;;;3.50;0.97;;;;;;;16.80;70.26;100206.00;5034596;28;20727;-74
2022/06/09 07:02:50;;;;;;;3.83;1.27;;;;;;;16.88;69.86;100213.59;5034577;28;20405;-74
2022/06/09 07:05:20;;;;;;;3.33;1.08;;;;;;;16.89;70.01;100216.03;5034284;28;20410;-74
2022/06/09 07:07:45;;;;;;;4.82;1.17;;;;;;;16.91;70.14;100223.97;5016293;28;20453;-74
2022/06/09 07:10:13;;;;;;;5.15;1.40;;;;;;;16.96;69.87;100232.09;5033662;28;21310;-74
2022/06/09 07:12:39;;;;;;;4.20;0.95;;;;;;;17.04;69.31;100236.94;5034370;28;20391;-74
2022/06/09 07:15:06;;;;;;;5.22;1.08;;;;;;;17.10;69.16;100236.56;5034218;28;20471;-74
2022/06/09 07:17:32;;;;;;;5.40;1.20;;;;;;;17.10;69.56;100236.56;5034092;28;20766;-74
2022/06/09 07:19:57;;;;;;;3.50;0.97;;;;;;;17.10;69.68;100242.06;5034268;28;20387;-74
2022/06/09 07:22:22;;;;;;;7.47;1.40;;;;;;;17.22;69.47;100235.34;5034347;28;20395;-74
2022/06/09 07:24:48;;;;;;;6.45;1.35;;;;;;;17.33;68.56;100239.56;5034102;28;20434;-74
2022/06/09 07:27:14;;;;;;;8.13;1.43;;;;;;;17.29;68.83;100242.06;5034034;28;20724;-74
2022/06/09 07:29:40;;;;;;;4.88;1.15;;;;;;;17.25;68.97;100249.28;5033910;28;20426;-74
2022/06/09 07:32:07;;;;;;;4.10;1.55;;;;;;;17.26;68.96;100248.13;5034077;28;20395;-74
2022/06/09 07:34:33;;;;;;;7.63;1.25;;;;;;;17.30;68.91;100260.16;5033623;28;20465;-74
2022/06/09 07:36:58;;;;;;;4.20;1.30;;;;;;;17.21;69.23;100255.63;5032835;28;20402;-74
2022/06/09 07:39:24;;;;;;;5.57;1.60;;;;;;;17.19;69.45;100252.38;5016133;28;20395;-74
2022/06/09 07:41:50;;;;;;;4.50;0.90;;;;;;;17.26;69.16;100256.34;5033491;28;20494;-74
2022/06/09 07:44:15;;;;;;;7.95;1.50;;;;;;;17.34;68.59;100252.16;5033628;28;20403;-74
2022/06/09 07:46:41;;;;;;;4.30;1.00;;;;;;;17.40;67.21;100262.75;5033698;28;20409;-74
2022/06/09 07:49:07;;;;;;;6.20;1.43;;;;;;;17.37;67.87;100257.88;5033744;28;20399;-74
2022/06/09 07:51:33;;;;;;;4.50;1.10;;;;;;;17.28;68.43;100258.81;5033186;28;20411;-74
2022/06/09 07:53:59;;;;;;;6.90;1.80;;;;;;;17.24;68.83;100265.97;5033646;28;20782;-74
2022/06/09 07:56:25;;;;;;;6.05;1.67;;;;;;;17.34;68.62;100266.69;5033196;28;20414;-74
2022/06/09 07:58:51;;;;;;;5.82;1.25;;;;;;;17.43;67.94;100264.09;5033469;28;20407;-74
2022/06/09 08:01:18;;;;;;;6.13;1.30;;;;;;;17.44;66.50;100258.31;5033087;28;20862;-74
2022/06/09 08:03:44;;;;;;;5.63;1.50;;;;;;;17.57;65.64;100267.75;5033246;28;20410;-74
2022/06/09 08:06:11;;;;;;;3.90;1.48;;;;;;;17.61;65.86;100269.63;5033265;28;20494;-74
2022/06/09 08:08:36;;;;;;;7.03;0.90;;;;;;;17.62;64.68;100267.69;5015531;28;20502;-74
2022/06/09 08:11:05;;;;;;;4.37;0.83;;;;;;;17.68;64.19;100265.69;5032965;28;20482;-74
2022/06/09 08:13:30;;;;;;;6.70;1.35;;;;;;;17.63;64.67;100269.31;5033157;28;20801;-74
2022/06/09 08:15:55;;;;;;;4.37;1.00;;;;;;;17.53;63.83;100267.50;5015509;28;20407;-72
2022/06/09 08:18:21;;;;;;;3.43;1.57;;;;;;;17.62;63.69;100278.63;5033408;28;20395;-72
2022/06/09 08:20:46;;;;;;;5.93;1.20;;;;;;;17.77;63.64;100272.13;5032687;28;20525;-74
2022/06/09 08:23:15;;;;;;;6.20;1.30;;;;;;;17.90;63.57;100272.22;5033103;28;20444;-74
2022/06/09 08:25:42;;;;;;;4.60;1.00;;;;;;;17.94;63.48;100276.00;5032464;28;20444;-74
2022/06/09 08:28:08;;;;;;;4.93;1.20;;;;;;;18.05;62.66;100274.69;5032973;28;20490;-73
2022/06/09 08:30:34;;;;;;;3.97;0.98;;;;;;;18.24;62.30;100276.59;5032816;28;20969;-74
2022/06/09 08:32:59;;;;;;;2.85;0.93;;;;;;;18.44;61.85;100268.03;5032526;28;20765;-74
2022/06/09 08:35:26;;;;;;;3.63;0.80;;;;;;;18.71;60.94;100276.31;5033033;28;20387;-73
2022/06/09 08:37:53;;;;;;;6.07;0.80;;;;;;;18.72;60.78;100280.72;5032769;28;20399;-74
2022/06/09 08:40:23;;;;;;;7.07;1.50;;;;;;;18.86;60.15;100281.56;5032628;28;20396;-74
2022/06/09 08:43:13;;;;;;;4.75;1.10;;;;;;;18.87;60.25;100283.16;5032440;28;20754;-74
2022/06/09 08:45:42;;;;;;;4.68;0.77;;;;;;;18.74;60.92;100291.41;5032306;28;20750;-74
2022/06/09 08:48:38;;;;;;;6.03;1.20;;;;;;;18.77;60.61;100290.78;5032484;28;20395;-74
2022/06/09 08:51:33;;;;;;;6.03;1.00;;;;;;;18.89;59.33;100293.84;5031718;28;20431;-74
2022/06/09 08:54:06;;;;;;;3.65;0.80;;;;;;;19.11;59.12;100285.72;5016433;28;20502;-73
2022/06/09 08:56:32;;;;;;;7.30;1.63;;;;;;;19.36;58.34;100298.94;5032375;28;20391;-74
2022/06/09 08:59:01;;;;;;;5.40;1.00;;;;;;;19.53;57.17;100287.31;5032409;28;20394;-73
2022/06/09 09:01:40;;;;;;;3.97;1.15;;;;;;;19.52;58.21;100293.97;5032329;28;20430;-75
2022/06/09 09:04:52;;;;;;;3.33;0.73;;;;;;;19.45;58.55;100290.81;5032120;28;20912;-74
2022/06/09 09:07:30;;;;;;;4.75;1.00;;;;;;;19.25;58.73;100302.19;5024886;28;20411;-74
2022/06/09 09:10:01;;;;;;;3.42;1.20;;;;;;;19.13;59.02;100308.22;5032172;28;20383;-74
2022/06/09 09:12:52;;;;;;;4.28;1.30;;;;;;;19.05;58.97;100312.47;5032017;28;20402;-74
2022/06/09 09:15:23;;;;;;;3.65;1.02;;;;;;;18.95;58.46;100311.84;5031852;28;20413;-74
2022/06/09 09:18:04;;;;;;;2.70;0.60;;;;;;;19.00;57.79;100309.81;5032144;28;20390;-74
2022/06/09 09:20:35;;;;;;;3.90;0.85;;;;;;;19.12;57.63;100321.13;5031933;28;20391;-74
2022/06/09 09:23:17;;;;;;;4.28;1.10;;;;;;;19.16;56.82;100315.84;5032114;28;20674;-74
2022/06/09 09:25:44;;;;;;;3.65;1.00;;;;;;;19.03;56.43;100317.44;5014236;28;20743;-74
2022/06/09 09:28:23;;;;;;;3.00;0.80;;;;;;;19.22;57.10;100313.81;5031926;28;20391;-74
2022/06/09 09:31:09;;;;;;;5.65;1.27;;;;;;;19.61;55.51;100325.09;5014157;28;20406;-74
2022/06/09 09:33:35;;;;;;;4.15;1.10;;;;;;;19.98;54.51;100326.75;5016969;28;20415;-74
2022/06/09 09:36:05;;;;;;;3.33;1.10;;;;;;;20.28;53.34;100334.31;5014060;28;20552;-74
2022/06/09 09:38:38;;;;;;;2.67;0.77;;;;;;;20.50;52.94;100330.75;5031828;28;20390;-73
2022/06/09 09:41:04;;;;;;;4.13;0.73;;;;;;;20.86;51.61;100328.69;5031720;28;20395;-74
2022/06/09 09:43:40;;;;;;;3.60;0.60;;;;;;;20.66;50.77;100327.28;5031872;28;20391;-73
2022/06/09 09:46:20;;;;;;;3.88;0.93;;;;;;;20.62;50.41;100336.47;5031294;28;20862;-73
2022/06/09 09:48:45;;;;;;;2.80;0.80;;;;;;;20.77;48.83;100340.78;5031690;28;20991;-73
2022/06/09 09:51:13;;;;;;;4.15;0.95;;;;;;;20.99;48.45;100338.00;5031607;28;20489;-74
2022/06/09 09:53:40;;;;;;;3.10;0.88;;;;;;;20.82;48.55;100335.13;5031503;28;20414;-73
2022/06/09 09:56:18;;;;;;;2.58;0.85;;;;;;;21.57;48.37;100341.31;5031461;28;20399;-74
2022/06/09 09:58:46;;;;;;;3.20;1.52;;;;;;;23.15;44.08;100335.13;5030944;28;20402;-74
2022/06/09 10:01:14;;;;;;;3.20;1.30;;;;;;;24.08;42.01;100329.34;5031542;28;20794;-73
2022/06/09 10:09:29;;;;;;;3.20;0.80;;;;;;;26.97;37.50;100335.25;5031688;28;20453;-73
2022/06/09 10:11:59;;;;;;;2.75;0.70;;;;;;;27.70;35.84;100335.50;5031463;28;20398;-73
2022/06/09 10:14:48;;;;;;;3.67;0.67;;;;;;;26.34;38.30;100345.41;5031368;28;20418;-73
2022/06/09 10:17:41;;;;;;;5.03;1.00;;;;;;;26.49;37.68;100346.63;5031471;28;20398;-73
2022/06/09 10:20:19;;;;;;;5.43;1.00;;;;;;;27.09;35.90;100351.06;5031450;28;20445;-74
2022/06/09 10:23:17;;;;;;;4.30;1.03;;;;;;;27.81;34.86;100344.13;5031307;28;20397;-74
2022/06/09 10:25:52;;;;;;;4.43;0.90;;;;;;;28.56;34.24;100350.16;5013421;28;20405;-73
2022/06/09 10:28:28;;;;;;;2.35;0.90;;;;;;;29.04;33.17;100351.50;5031306;28;20394;-73
2022/06/09 10:31:32;;;;;;;3.95;0.85;;;;;;;29.67;32.32;100337.81;5031222;28;20398;-73
2022/06/09 10:34:08;;;;;;;3.58;1.15;;;;;;;28.90;33.65;100340.06;5031044;28;20774;-73
2022/06/09 10:36:45;;;;;;;3.22;1.10;;;;;;;26.81;36.12;100346.38;5030919;28;20418;-73
2022/06/09 10:39:22;;;;;;;3.38;1.08;;;;;;;27.57;36.22;100349.91;5031226;28;20387;-73
2022/06/09 10:41:53;;;;;;;4.80;1.03;;;;;;;27.94;35.61;100350.38;5013309;28;20795;-74
2022/06/09 10:44:37;;;;;;;2.10;1.00;;;;;;;29.95;32.75;100348.63;5029596;28;20759;-73
2022/06/09 10:56:04;;;;;;;3.50;0.90;;;;;;;30.89;29.63;100351.00;5015056;28;20430;-74
2022/06/09 10:58:37;;;;;;;4.88;1.08;;;;;;;31.72;28.06;100351.38;5031046;28;20743;-72
2022/06/09 11:01:04;;;;;;;2.50;0.70;;;;;;;31.09;28.60;100346.03;5013272;28;20402;-73
2022/06/09 11:03:35;;;;;;;2.90;0.70;;;;;;;30.77;28.87;100354.09;5030958;28;20395;-74
2022/06/09 11:06:23;;;;;;;2.63;0.57;;;;;;;31.21;28.42;100351.34;5030524;28;20767;-73
2022/06/09 11:09:00;;;;;;;2.90;1.10;;;;;;;32.45;26.88;100351.38;5030825;28;20426;-73
2022/06/09 11:11:25;;;;;;;1.95;0.88;;;;;;;33.11;26.58;100355.63;5032820;28;20586;-73
2022/06/09 11:14:23;;;;;;;5.00;1.07;;;;;;;31.86;27.22;100348.69;5034366;28;20414;-73
2022/06/09 11:17:17;;;;;;;2.63;0.85;;;;;;;30.52;30.24;100357.78;5013725;28;20414;-73
2022/06/09 11:19:56;;;;;;;2.60;0.93;;;;;;;31.62;27.95;100343.69;5020054;28;20398;-73
2022/06/09 11:22:40;;;;;;;1.95;0.70;;;;;;;32.35;26.63;100352.97;5034360;28;20391;-73
2022/06/09 11:25:24;;;;;;;2.72;0.90;;;;;;;32.79;26.34;100361.16;5034175;28;20490;-73
2022/06/09 11:28:07;;;;;;;5.00;0.73;;;;;;;32.74;26.03;100356.72;5033944;28;20395;-73
2022/06/09 11:30:53;;;;;;;2.50;1.00;;;;;;;32.95;25.98;100357.97;5034137;28;20442;-73
2022/06/09 11:33:30;;;;;;;2.58;1.10;;;;;;;32.93;25.74;100358.41;5018497;28;20458;-73
2022/06/09 11:36:02;;;;;;;2.60;1.00;;;;;;;32.79;26.45;100359.16;5028322;28;20452;-73
2022/06/09 11:38:43;;;;;;;1.60;0.88;;;;;;;32.47;27.06;100357.44;5034001;28;20394;-73
2022/06/09 11:41:30;;;;;;;3.88;1.10;;;;;;;32.22;26.32;100346.09;5018170;28;20379;-73
2022/06/09 11:44:07;;;;;;;2.70;0.90;;;;;;;31.25;28.17;100351.41;5033887;28;20399;-73
2022/06/09 11:46:38;;;;;;;1.70;0.87;;;;;;;32.16;27.40;100354.09;5033783;28;20475;-73
2022/06/09 11:49:10;;;;;;;1.75;0.70;;;;;;;32.62;26.16;100350.69;5018659;28;20391;-73
2022/06/09 11:51:36;;;;;;;2.15;0.80;;;;;;;32.71;26.30;100353.91;5033716;28;20399;-74
2022/06/09 11:54:26;;;;;;;3.80;1.00;;;;;;;32.68;26.26;100347.09;5033532;28;20426;-73
2022/06/09 11:57:27;;;;;;;2.05;0.70;;;;;;;31.93;26.83;100347.09;5031972;28;20446;-73
2022/06/09 12:00:19;;;;;;;1.42;0.98;;;;;;;29.70;29.40;100350.22;5033670;28;20394;-73